createdAt,value
2023-02-07T00:02:21.583Z,18
2023-02-07T00:03:21.399Z,15
2023-02-07T00:04:21.404Z,16
2023-02-07T00:07:21.361Z,17
2023-02-07T00:08:21.373Z,16
2023-02-07T00:11:21.372Z,15
2023-02-07T00:12:21.365Z,15
2023-02-07T00:13:21.367Z,14
2023-02-07T00:14:21.365Z,15
2023-02-07T00:15:21.374Z,16
2023-02-07T00:16:21.454Z,16
2023-02-07T00:17:21.352Z,15
2023-02-07T00:19:21.366Z,15
2023-02-07T00:21:21.381Z,13
2023-02-07T00:22:21.369Z,15
2023-02-07T00:24:21.366Z,13
2023-02-07T00:25:21.360Z,15
2023-02-07T00:27:21.388Z,14
2023-02-07T00:28:21.473Z,14
2023-02-07T00:29:21.369Z,13
2023-02-07T00:30:21.396Z,14
2023-02-07T00:31:21.503Z,15
2023-02-07T00:32:21.362Z,16
2023-02-07T00:33:21.365Z,17
2023-02-07T00:34:21.365Z,15
2023-02-07T00:35:21.394Z,15
2023-02-07T00:36:21.358Z,14
2023-02-07T00:37:21.356Z,16
2023-02-07T00:38:21.367Z,15
2023-02-07T00:39:21.359Z,15
2023-02-07T00:40:21.361Z,17
2023-02-07T00:42:21.368Z,14
2023-02-07T00:43:29.428Z,16
2023-02-07T00:44:21.378Z,13
2023-02-07T00:45:21.362Z,15
2023-02-07T00:46:21.479Z,16
2023-02-07T00:47:21.370Z,17
2023-02-07T00:48:21.377Z,16
2023-02-07T00:50:21.359Z,17
2023-02-07T00:52:21.358Z,16
2023-02-07T00:53:21.366Z,16
2023-02-07T00:54:21.376Z,16
2023-02-07T00:55:21.366Z,17
2023-02-07T00:57:21.350Z,20
2023-02-07T00:58:21.425Z,19
2023-02-07T00:59:21.371Z,20
2023-02-07T01:02:21.367Z,21
2023-02-07T01:03:21.420Z,19
2023-02-07T01:04:21.403Z,20
2023-02-07T01:09:21.360Z,20
2023-02-07T01:13:21.351Z,22
2023-02-07T01:14:21.358Z,22
2023-02-07T01:17:21.357Z,22
2023-02-07T01:19:21.344Z,20
2023-02-07T01:20:21.353Z,21
2023-02-07T01:22:21.361Z,21
2023-02-07T01:23:21.363Z,22
2023-02-07T01:26:21.357Z,19
2023-02-07T01:27:21.353Z,22
2023-02-07T01:30:21.344Z,22
2023-02-07T01:32:21.369Z,21
2023-02-07T01:33:21.354Z,19
2023-02-07T01:34:21.360Z,22
2023-02-07T01:35:21.346Z,21
2023-02-07T01:36:21.354Z,22
2023-02-07T01:37:21.377Z,22
2023-02-07T01:38:21.356Z,20
2023-02-07T01:39:21.375Z,22
2023-02-07T01:41:21.349Z,20
2023-02-07T01:43:21.341Z,19
2023-02-07T01:44:21.359Z,22
2023-02-07T01:46:21.434Z,22
2023-02-07T01:48:21.351Z,22
2023-02-07T01:49:21.351Z,21
2023-02-07T01:51:21.530Z,23
2023-02-07T01:52:21.343Z,23
2023-02-07T01:53:21.346Z,23
2023-02-07T01:56:30.996Z,21
2023-02-07T01:57:21.337Z,21
2023-02-07T01:58:21.346Z,22
2023-02-07T01:59:21.337Z,22
2023-02-07T02:00:21.336Z,23
2023-02-07T02:01:21.380Z,24
2023-02-07T02:02:21.450Z,22
2023-02-07T02:04:21.350Z,26
2023-02-07T02:06:21.344Z,21
2023-02-07T02:07:21.333Z,24
2023-02-07T02:09:21.340Z,24
2023-02-07T02:10:21.344Z,23
2023-02-07T02:11:21.340Z,23
2023-02-07T02:15:21.336Z,22
2023-02-07T02:16:21.420Z,23
2023-02-07T02:17:21.402Z,22
2023-02-07T02:18:21.338Z,20
2023-02-07T02:19:21.331Z,22
2023-02-07T02:20:21.339Z,21
2023-02-07T02:21:21.338Z,23
2023-02-07T02:23:21.335Z,24
2023-02-07T02:24:21.341Z,23
2023-02-07T02:25:21.346Z,19
2023-02-07T02:27:21.340Z,22
2023-02-07T02:28:21.385Z,21
2023-02-07T02:31:21.412Z,22
2023-02-07T02:32:21.330Z,23
2023-02-07T02:33:21.368Z,22
2023-02-07T02:34:21.358Z,21
2023-02-07T02:36:21.328Z,25
2023-02-07T02:37:22.128Z,22
2023-02-07T02:39:21.366Z,23
2023-02-07T02:40:21.335Z,23
2023-02-07T02:41:21.330Z,23
2023-02-07T02:42:21.328Z,19
2023-02-07T02:45:21.331Z,25
2023-02-07T02:46:21.379Z,24
2023-02-07T02:47:21.330Z,24
2023-02-07T02:48:21.327Z,24
2023-02-07T02:49:21.395Z,24
2023-02-07T02:50:21.328Z,25
2023-02-07T02:51:21.322Z,25
2023-02-07T02:52:21.346Z,25
2023-02-07T02:54:21.388Z,26
2023-02-07T02:57:21.326Z,24
2023-02-07T02:58:21.324Z,24
2023-02-07T03:00:21.321Z,23
2023-02-07T03:01:21.386Z,22
2023-02-07T03:02:21.326Z,21
2023-02-07T03:03:21.328Z,22
2023-02-07T03:04:22.621Z,24
2023-02-07T03:05:21.384Z,22
2023-02-07T03:07:21.328Z,23
2023-02-07T03:08:21.340Z,25
2023-02-07T03:10:21.352Z,24
2023-02-07T03:12:21.324Z,24
2023-02-07T03:13:21.325Z,23
2023-02-07T03:14:21.328Z,22
2023-02-07T03:15:21.363Z,22
2023-02-07T03:16:21.353Z,27
2023-02-07T03:18:21.335Z,24
2023-02-07T03:20:21.324Z,25
2023-02-07T03:21:21.379Z,24
2023-02-07T03:22:21.347Z,24
2023-02-07T03:23:21.460Z,23
2023-02-07T03:24:21.339Z,25
2023-02-07T03:26:21.322Z,22
2023-02-07T03:27:21.319Z,25
2023-02-07T03:28:21.347Z,23
2023-02-07T03:30:21.474Z,24
2023-02-07T03:31:21.412Z,24
2023-02-07T03:32:21.347Z,24
2023-02-07T03:33:21.320Z,24
2023-02-07T03:35:21.317Z,25
2023-02-07T03:36:21.330Z,24
2023-02-07T03:37:21.316Z,25
2023-02-07T03:39:21.309Z,27
2023-02-07T03:40:21.306Z,25
2023-02-07T03:41:21.408Z,24
2023-02-07T03:42:21.316Z,24
2023-02-07T03:45:21.344Z,22
2023-02-07T03:47:21.407Z,23
2023-02-07T03:48:21.305Z,23
2023-02-07T03:51:21.310Z,22
2023-02-07T03:52:21.313Z,24
2023-02-07T03:53:21.321Z,23
2023-02-07T03:54:21.324Z,24
2023-02-07T03:55:21.319Z,24
2023-02-07T03:56:21.317Z,24
2023-02-07T04:02:21.366Z,23
2023-02-07T04:03:21.318Z,23
2023-02-07T04:04:21.309Z,23
2023-02-07T04:06:21.313Z,22
2023-02-07T04:08:21.318Z,21
2023-02-07T04:09:21.311Z,23
2023-02-07T04:10:21.329Z,21
2023-02-07T04:12:21.348Z,22
2023-02-07T04:13:21.309Z,24
2023-02-07T04:14:21.325Z,24
2023-02-07T04:15:21.312Z,24
2023-02-07T04:16:21.304Z,21
2023-02-07T04:17:21.309Z,23
2023-02-07T04:20:21.317Z,23
2023-02-07T04:22:21.309Z,22
2023-02-07T04:23:21.310Z,21
2023-02-07T04:24:21.306Z,22
2023-02-07T04:28:21.411Z,23
2023-02-07T04:29:21.305Z,22
2023-02-07T04:32:21.296Z,23
2023-02-07T04:33:21.390Z,24
2023-02-07T04:34:21.302Z,23
2023-02-07T04:35:21.294Z,23
2023-02-07T04:37:21.304Z,22
2023-02-07T04:38:21.305Z,20
2023-02-07T04:40:21.312Z,23
2023-02-07T04:42:21.297Z,22
2023-02-07T04:45:21.296Z,22
2023-02-07T04:46:21.314Z,23
2023-02-07T04:49:21.288Z,22
2023-02-07T04:50:21.291Z,23
2023-02-07T04:53:21.362Z,22
2023-02-07T04:55:21.288Z,22
2023-02-07T04:56:21.293Z,22
2023-02-07T04:57:21.343Z,25
2023-02-07T05:02:21.297Z,23
2023-02-07T05:03:21.311Z,22
2023-02-07T05:05:21.297Z,21
2023-02-07T05:06:21.291Z,21
2023-02-07T05:07:21.303Z,22
2023-02-07T05:10:21.289Z,19
2023-02-07T05:12:21.293Z,23
2023-02-07T05:14:21.311Z,22
2023-02-07T05:16:22.120Z,22
2023-02-07T05:18:21.449Z,22
2023-02-07T05:20:21.299Z,22
2023-02-07T05:25:21.290Z,20
2023-02-07T05:26:21.291Z,22
2023-02-07T05:28:21.348Z,21
2023-02-07T05:30:21.289Z,20
2023-02-07T05:31:21.489Z,22
2023-02-07T05:33:21.292Z,22
2023-02-07T05:35:21.301Z,23
2023-02-07T05:36:21.389Z,22
2023-02-07T05:37:21.290Z,20
2023-02-07T05:38:21.320Z,23
2023-02-07T05:40:21.308Z,23
2023-02-07T05:41:21.288Z,21
2023-02-07T05:43:21.288Z,20
2023-02-07T05:45:21.316Z,20
2023-02-07T05:46:21.361Z,18
2023-02-07T05:50:21.285Z,17
2023-02-07T05:51:21.309Z,17
2023-02-07T05:52:21.280Z,17
2023-02-07T05:53:21.285Z,16
2023-02-07T05:54:21.275Z,16
2023-02-07T05:57:21.280Z,15
2023-02-07T05:58:21.278Z,13
2023-02-07T05:59:21.275Z,14
2023-02-07T06:00:21.290Z,16
2023-02-07T06:01:21.273Z,14
2023-02-07T06:04:21.274Z,16
2023-02-07T06:05:21.305Z,14
2023-02-07T06:06:21.272Z,18
2023-02-07T06:07:21.272Z,16
2023-02-07T06:09:21.265Z,16
2023-02-07T06:10:21.271Z,16
2023-02-07T06:11:21.286Z,16
2023-02-07T06:12:21.292Z,15
2023-02-07T06:13:21.271Z,15
2023-02-07T06:15:21.335Z,15
2023-02-07T06:16:21.289Z,15
2023-02-07T06:18:21.284Z,15
2023-02-07T06:19:21.271Z,14
2023-02-07T06:20:21.291Z,14
2023-02-07T06:23:21.272Z,13
2023-02-07T06:24:21.290Z,13
2023-02-07T06:26:21.262Z,13
2023-02-07T06:27:21.275Z,14
2023-02-07T06:28:21.379Z,13
2023-02-07T17:34:29.439Z,12
2023-02-07T17:35:29.443Z,12
2023-02-07T17:36:29.441Z,12
2023-02-07T17:37:29.444Z,11
2023-02-07T17:38:29.441Z,14
2023-02-07T17:39:29.480Z,13
2023-02-07T17:40:29.430Z,10
2023-02-07T17:41:29.433Z,11
2023-02-07T17:42:29.498Z,11
2023-02-07T17:45:29.436Z,24
2023-02-07T17:46:29.433Z,53
2023-02-07T17:47:29.423Z,34
2023-02-07T17:48:29.426Z,37
2023-02-07T17:49:29.483Z,37
2023-02-07T17:50:29.509Z,28
2023-02-07T17:52:29.435Z,20
2023-02-07T17:53:29.487Z,20
2023-02-07T17:54:29.427Z,21
2023-02-07T17:55:29.440Z,17
2023-02-07T17:56:29.438Z,15
2023-02-07T17:57:29.442Z,15
2023-02-07T17:58:29.436Z,14
2023-02-07T18:00:29.433Z,14
2023-02-07T18:01:29.481Z,13
2023-02-07T18:02:29.505Z,11
2023-02-07T18:03:29.425Z,11
2023-02-07T18:04:29.434Z,10
2023-02-07T18:05:29.527Z,10
2023-02-07T18:07:29.430Z,10
2023-02-07T18:08:29.428Z,10
2023-02-07T18:09:29.747Z,10
2023-02-07T18:10:29.433Z,11
2023-02-07T18:11:29.423Z,9
2023-02-07T18:12:29.421Z,10
2023-02-07T18:13:29.423Z,9
2023-02-07T18:15:29.451Z,10
2023-02-07T18:16:29.424Z,11
2023-02-07T18:18:29.432Z,13
2023-02-07T18:19:29.432Z,13
2023-02-07T18:20:29.444Z,13
2023-02-07T18:21:29.490Z,12
2023-02-07T18:22:29.491Z,10
2023-02-07T18:23:29.433Z,8
2023-02-07T18:24:29.417Z,10
2023-02-07T18:26:29.421Z,9
2023-02-07T18:27:29.425Z,10
2023-02-07T18:28:29.419Z,8
2023-02-07T18:29:29.418Z,8
2023-02-07T18:30:29.452Z,8
2023-02-07T18:31:29.514Z,8
2023-02-07T18:32:29.424Z,9
2023-02-07T18:33:29.425Z,8
2023-02-07T18:34:29.427Z,9
2023-02-07T18:35:29.426Z,8
2023-02-07T18:36:29.456Z,8
2023-02-07T18:37:29.424Z,8
2023-02-07T18:38:29.436Z,8
2023-02-07T18:39:29.430Z,9
2023-02-07T18:40:29.445Z,9
2023-02-07T18:41:29.437Z,10
2023-02-07T18:42:29.425Z,9
2023-02-07T18:43:29.452Z,9
2023-02-07T18:44:29.429Z,8
2023-02-07T18:45:29.420Z,8
2023-02-07T18:47:29.422Z,9
2023-02-07T18:48:29.434Z,8
2023-02-07T18:49:29.428Z,10
2023-02-07T18:50:29.418Z,9
2023-02-07T18:51:29.430Z,9
2023-02-07T18:53:29.418Z,9
2023-02-07T18:55:29.420Z,9
2023-02-07T18:56:29.424Z,9
2023-02-07T18:57:29.557Z,10
2023-02-07T18:58:29.413Z,10
2023-02-07T18:59:29.417Z,9
2023-02-07T19:00:29.417Z,9
2023-02-07T19:01:29.463Z,11
2023-02-07T19:02:29.431Z,9
2023-02-07T19:03:29.414Z,10
2023-02-07T19:04:29.420Z,10
2023-02-07T19:05:29.415Z,12
2023-02-07T19:06:29.424Z,10
2023-02-07T19:08:29.431Z,10
2023-02-07T19:09:29.450Z,11
2023-02-07T19:10:29.429Z,10
2023-02-07T19:11:29.419Z,10
2023-02-07T19:12:29.425Z,11
2023-02-07T19:13:29.438Z,11
2023-02-07T19:14:29.427Z,10
2023-02-07T19:15:29.516Z,11
2023-02-07T19:16:29.417Z,9
2023-02-07T19:17:29.417Z,10
2023-02-07T19:19:29.434Z,11
2023-02-07T19:20:29.413Z,10
2023-02-07T19:21:29.420Z,10
2023-02-07T19:22:35.299Z,11
2023-02-07T19:23:29.435Z,12
2023-02-07T19:24:29.424Z,13
2023-02-07T19:25:29.422Z,11
2023-02-07T19:26:29.430Z,11
2023-02-07T19:27:29.420Z,9
2023-02-07T19:28:29.516Z,10
2023-02-07T19:29:29.652Z,11
2023-02-07T19:30:29.431Z,12
2023-02-07T19:31:29.635Z,13
2023-02-07T19:32:29.414Z,13
2023-02-07T19:33:29.410Z,15
2023-02-07T19:34:29.418Z,14
2023-02-07T19:35:29.426Z,14
2023-02-07T19:36:29.418Z,15
2023-02-07T19:37:29.432Z,19
2023-02-07T19:38:29.433Z,19
2023-02-07T19:39:29.427Z,18
2023-02-07T19:40:29.427Z,20
2023-02-07T19:41:29.408Z,22
2023-02-07T19:42:29.407Z,22
2023-02-07T19:45:29.555Z,21
2023-02-07T19:46:29.515Z,19
2023-02-07T19:48:29.417Z,19
2023-02-07T19:49:29.409Z,20
2023-02-07T19:52:29.420Z,22
2023-02-07T19:53:29.464Z,21
2023-02-07T19:54:29.411Z,22
2023-02-07T19:55:29.418Z,19
2023-02-07T19:56:29.459Z,19
2023-02-07T19:57:29.418Z,18
2023-02-07T19:58:29.421Z,22
2023-02-07T19:59:29.442Z,21
2023-02-07T20:01:29.473Z,21
2023-02-07T20:02:29.417Z,22
2023-02-07T20:03:29.485Z,21
2023-02-07T20:04:29.454Z,21
2023-02-07T20:05:29.413Z,23
2023-02-07T20:06:29.425Z,22
2023-02-07T20:07:29.410Z,23
2023-02-07T20:09:29.407Z,24
2023-02-07T20:13:29.423Z,22
2023-02-07T20:14:29.413Z,21
2023-02-07T20:16:29.447Z,20
2023-02-07T20:17:29.431Z,20
2023-02-07T20:18:29.407Z,20
2023-02-07T20:19:29.426Z,20
2023-02-07T20:20:29.411Z,21
2023-02-07T20:23:29.408Z,18
2023-02-07T20:24:29.437Z,18
2023-02-07T20:25:29.414Z,18
2023-02-07T20:26:31.457Z,17
2023-02-07T20:27:29.408Z,16
2023-02-07T20:28:29.453Z,16
2023-02-07T20:29:29.421Z,15
2023-02-07T20:30:29.462Z,17
2023-02-07T20:31:29.504Z,16
2023-02-07T20:32:29.413Z,15
2023-02-07T20:33:29.423Z,16
2023-02-07T20:34:29.416Z,16
2023-02-07T20:35:29.420Z,16
2023-02-07T20:36:29.443Z,16
2023-02-07T20:37:29.404Z,14
2023-02-07T20:38:29.428Z,14
2023-02-07T20:39:29.421Z,15
2023-02-07T20:40:29.407Z,15
2023-02-07T20:41:29.799Z,15
2023-02-07T20:43:29.420Z,16
2023-02-07T20:44:29.428Z,15
2023-02-07T20:45:29.413Z,13
2023-02-07T20:46:29.469Z,16
2023-02-07T20:47:29.411Z,16
2023-02-07T20:48:29.415Z,18
2023-02-07T20:49:29.436Z,17
2023-02-07T20:51:29.422Z,18
2023-02-07T20:52:29.421Z,17
2023-02-07T20:53:29.420Z,18
2023-02-07T20:54:29.465Z,21
2023-02-07T20:55:29.445Z,18
2023-02-07T20:56:29.434Z,16
2023-02-07T20:57:29.414Z,18
2023-02-07T20:58:29.413Z,18
2023-02-07T20:59:29.426Z,17
2023-02-07T21:00:29.429Z,17
2023-02-07T21:02:29.473Z,17
2023-02-07T21:04:29.424Z,16
2023-02-07T21:05:29.430Z,17
2023-02-07T21:06:29.427Z,17
2023-02-07T21:07:29.410Z,17
2023-02-07T21:08:29.436Z,17
2023-02-07T21:09:29.422Z,17
2023-02-07T21:10:29.439Z,17
2023-02-07T21:12:29.399Z,18
2023-02-07T21:13:29.421Z,19
2023-02-07T21:14:29.418Z,19
2023-02-07T21:15:29.433Z,19
2023-02-07T21:16:29.455Z,19
2023-02-07T21:17:29.404Z,19
2023-02-07T21:18:29.421Z,20
2023-02-07T21:19:29.407Z,19
2023-02-07T21:20:29.405Z,20
2023-02-07T21:21:29.405Z,18
2023-02-07T21:23:29.413Z,19
2023-02-07T21:25:29.397Z,19
2023-02-07T21:26:29.437Z,18
2023-02-07T21:28:29.396Z,18
2023-02-07T21:29:29.414Z,19
2023-02-07T21:30:29.477Z,20
2023-02-07T21:31:29.472Z,19
2023-02-07T21:32:29.405Z,19
2023-02-07T21:33:29.415Z,21
2023-02-07T21:34:29.397Z,21
2023-02-07T21:35:29.424Z,22
2023-02-07T21:36:29.399Z,23
2023-02-07T21:37:29.389Z,24
2023-02-07T21:38:29.406Z,23
2023-02-07T21:39:29.397Z,23
2023-02-07T21:40:29.434Z,23
2023-02-07T21:41:29.380Z,23
2023-02-07T21:42:29.394Z,24
2023-02-07T21:44:29.394Z,30
2023-02-07T21:45:29.440Z,49
2023-02-07T21:46:29.394Z,43
2023-02-07T21:47:29.394Z,35
2023-02-07T21:48:29.393Z,29
2023-02-07T21:49:29.392Z,26
2023-02-07T21:50:29.432Z,26
2023-02-07T21:51:29.393Z,26
2023-02-07T21:52:29.396Z,28
2023-02-07T21:53:29.412Z,29
2023-02-07T21:54:29.395Z,33
2023-02-07T21:55:29.392Z,36
2023-02-07T21:56:29.395Z,42
2023-02-07T21:57:29.412Z,32
2023-02-07T21:58:29.381Z,31
2023-02-07T21:59:29.405Z,31
2023-02-07T22:00:29.393Z,30
2023-02-07T22:01:29.431Z,32
2023-02-07T22:02:29.415Z,33
2023-02-07T22:03:29.500Z,36
2023-02-07T22:05:29.394Z,35
2023-02-07T22:06:29.427Z,34
2023-02-07T22:07:29.432Z,34
2023-02-07T22:09:29.424Z,33
2023-02-07T22:10:29.496Z,34
2023-02-07T22:11:29.381Z,33
2023-02-07T22:12:29.393Z,33
2023-02-07T22:14:29.392Z,33
2023-02-07T22:15:29.386Z,34
2023-02-07T22:16:29.477Z,33
2023-02-07T22:17:29.379Z,34
2023-02-07T22:18:29.383Z,33
2023-02-07T22:19:29.388Z,36
2023-02-07T22:20:29.399Z,33
2023-02-07T22:21:29.418Z,34
2023-02-07T22:22:29.392Z,34
2023-02-07T22:23:29.378Z,35
2023-02-07T22:24:29.403Z,34
2023-02-07T22:26:29.374Z,35
2023-02-07T22:27:29.390Z,33
2023-02-07T22:28:29.399Z,34
2023-02-07T22:29:29.391Z,36
2023-02-07T22:30:29.459Z,36
2023-02-07T22:31:29.566Z,35
2023-02-07T22:32:29.387Z,36
2023-02-07T22:33:29.382Z,36
2023-02-07T22:34:29.367Z,34
2023-02-07T22:35:29.376Z,36
2023-02-07T22:37:29.405Z,34
2023-02-07T22:39:29.380Z,36
2023-02-07T22:40:29.579Z,32
2023-02-07T22:41:29.373Z,27
2023-02-07T22:42:29.370Z,30
2023-02-07T22:52:29.445Z,26
2023-02-07T22:53:29.425Z,27
2023-02-07T22:55:29.415Z,27
2023-02-07T22:56:29.426Z,26
2023-02-07T22:58:29.425Z,25
2023-02-07T22:59:29.419Z,25
2023-02-07T23:00:29.417Z,23
2023-02-07T23:01:29.421Z,24
2023-02-07T23:02:29.451Z,23
2023-02-07T23:03:29.467Z,25
2023-02-07T23:05:29.453Z,25
2023-02-07T23:06:29.411Z,24
2023-02-07T23:08:29.414Z,24
2023-02-07T23:09:29.428Z,25
2023-02-07T23:10:29.418Z,24
2023-02-07T23:11:29.432Z,25
2023-02-07T23:12:29.416Z,23
2023-02-07T23:13:29.409Z,23
2023-02-07T23:14:29.424Z,23
2023-02-07T23:15:29.459Z,23
2023-02-07T23:16:29.414Z,24
2023-02-07T23:17:29.436Z,24
2023-02-07T23:18:29.422Z,25
2023-02-07T23:19:29.412Z,28
2023-02-07T23:20:29.431Z,31
2023-02-07T23:21:29.412Z,29
2023-02-07T23:22:29.415Z,32
2023-02-07T23:23:29.434Z,34
2023-02-07T23:24:29.431Z,39
2023-02-07T23:25:29.422Z,36
2023-02-07T23:26:29.415Z,34
2023-02-07T23:27:29.406Z,30
2023-02-07T23:28:29.410Z,26
2023-02-07T23:29:29.412Z,26
2023-02-07T23:30:29.452Z,26
2023-02-07T23:31:29.541Z,26
2023-02-07T23:32:29.405Z,26
2023-02-07T23:33:29.419Z,25
2023-02-07T23:34:29.415Z,24
2023-02-07T23:35:29.414Z,25
2023-02-07T23:37:29.427Z,24
2023-02-07T23:38:29.408Z,22
2023-02-07T23:40:29.400Z,22
2023-02-07T23:41:29.410Z,24
2023-02-07T23:42:29.418Z,24
2023-02-07T23:43:29.401Z,24
2023-02-07T23:44:29.403Z,23
2023-02-07T23:45:29.407Z,22
2023-02-07T23:46:29.470Z,22
2023-02-07T23:47:29.411Z,22
2023-02-07T23:48:29.410Z,23
2023-02-07T23:49:29.409Z,22
2023-02-07T23:50:29.408Z,22
2023-02-07T23:51:29.413Z,31
2023-02-07T23:52:29.408Z,31
2023-02-07T23:53:29.414Z,38
2023-02-07T23:54:29.440Z,36
2023-02-07T23:55:29.408Z,43
2023-02-07T23:56:29.409Z,39
2023-02-07T23:57:29.417Z,34
2023-02-07T23:58:29.437Z,34
2023-02-07T23:59:29.409Z,32
